Time;durP1;ratioP1;P1;durP2;ratioP2;P2;SDS_P1;SDS_P2;PMS_P1;PMS_P2;Temp;Humidity;BMP_temperature;BMP_pressure;BME280_temperature;BME280_humidity;BME280_pressure;Samples;Min_cycle;Max_cycle;Signal;HPM_P1;HPM_P2
2021/03/04 00:00:49;;;;;;;84.57;45.55;;;;;;;6.02;100.00;99419.34;2104091;28;20874;-75
2021/03/04 00:01:50;;;;;;;87.10;44.70;;;;;;;5.96;100.00;99417.69;2095732;28;20222;-75
2021/03/04 00:02:52;;;;;;;87.85;46.70;;;;;;;5.93;100.00;99420.88;2104318;28;20224;-75
2021/03/04 00:03:54;;;;;;;89.03;46.08;;;;;;;5.87;100.00;99421.88;2095492;28;20273;-76
2021/03/04 00:04:55;;;;;;;85.35;46.10;;;;;;;5.88;100.00;99420.81;2104497;28;20229;-76
2021/03/04 00:05:57;;;;;;;81.38;44.67;;;;;;;5.83;100.00;99413.66;2113223;27;20229;-75
2021/03/04 00:06:58;;;;;;;85.25;44.85;;;;;;;5.86;100.00;99414.97;2113109;27;20562;-75
2021/03/04 00:08:00;;;;;;;81.28;43.42;;;;;;;5.84;100.00;99412.59;2113214;27;20575;-75
2021/03/04 00:09:03;;;;;;;83.15;45.60;;;;;;;5.81;100.00;99417.56;2113374;27;20221;-75
2021/03/04 00:10:06;;;;;;;85.25;45.25;;;;;;;5.81;100.00;99418.38;2104127;28;20227;-75
2021/03/04 00:11:07;;;;;;;82.60;44.53;;;;;;;5.75;100.00;99402.72;2104051;27;20736;-75
2021/03/04 00:12:10;;;;;;;88.20;46.20;;;;;;;5.81;100.00;99407.78;2113171;27;20303;-75
2021/03/04 00:13:11;;;;;;;89.78;45.00;;;;;;;5.79;100.00;99411.75;2103731;28;20586;-75
2021/03/04 00:14:13;;;;;;;86.57;44.85;;;;;;;5.83;100.00;99411.00;2104159;28;20233;-75
2021/03/04 00:15:16;;;;;;;82.05;45.08;;;;;;;5.80;100.00;99416.00;2113152;27;20221;-75
2021/03/04 00:16:18;;;;;;;83.97;45.25;;;;;;;5.80;100.00;99405.41;2113093;27;20598;-75
2021/03/04 00:17:19;;;;;;;90.97;46.85;;;;;;;5.75;100.00;99403.53;2103944;28;20558;-75
2021/03/04 00:18:21;;;;;;;86.88;45.55;;;;;;;5.68;100.00;99402.94;2095662;28;20222;-75
2021/03/04 00:19:22;;;;;;;79.55;44.22;;;;;;;5.67;100.00;99407.44;2101950;27;20275;-76
2021/03/04 00:20:27;;;;;;;90.38;46.30;;;;;;;5.67;100.00;99402.16;2113089;27;20737;-75
2021/03/04 00:21:28;;;;;;;88.60;43.33;;;;;;;5.71;100.00;99404.28;2104063;28;20270;-75
2021/03/04 00:22:29;;;;;;;85.82;44.20;;;;;;;5.68;100.00;99402.94;2112426;28;20254;-75
2021/03/04 00:23:31;;;;;;;93.13;44.10;;;;;;;5.67;100.00;99399.50;2121003;27;20223;-75
2021/03/04 00:24:33;;;;;;;87.72;46.15;;;;;;;5.70;100.00;99405.34;2105430;28;20249;-75
2021/03/04 00:25:36;;;;;;;84.05;45.78;;;;;;;5.67;100.00;99404.00;2105782;28;20300;-75
2021/03/04 00:26:37;;;;;;;83.43;45.70;;;;;;;5.73;100.00;99407.47;2114420;27;20290;-75
2021/03/04 00:27:40;;;;;;;77.88;43.15;;;;;;;5.68;100.00;99408.25;2114701;27;20670;-75
2021/03/04 00:28:41;;;;;;;84.28;44.78;;;;;;;5.60;100.00;99393.63;2104954;28;20221;-76
2021/03/04 00:29:42;;;;;;;80.30;43.88;;;;;;;5.64;100.00;99405.28;2105745;28;20231;-76
2021/03/04 00:30:44;;;;;;;77.40;43.72;;;;;;;5.65;100.00;99398.19;2105555;28;20221;-75
2021/03/04 00:31:46;;;;;;;78.20;44.63;;;;;;;5.56;100.00;99395.22;2105707;28;20739;-75
2021/03/04 00:32:47;;;;;;;80.07;44.17;;;;;;;5.62;100.00;99401.31;2105520;28;20220;-75
2021/03/04 00:33:48;;;;;;;81.60;43.20;;;;;;;5.71;100.00;99401.63;2105722;28;20232;-75
2021/03/04 00:34:50;;;;;;;85.55;44.30;;;;;;;5.68;100.00;99397.66;2114462;27;20303;-75
2021/03/04 00:35:51;;;;;;;76.13;43.30;;;;;;;5.60;100.00;99393.63;2114706;27;20225;-75
2021/03/04 00:36:53;;;;;;;78.68;42.75;;;;;;;5.62;100.00;99398.66;2103192;28;20650;-76
2021/03/04 00:37:54;;;;;;;82.93;43.67;;;;;;;5.64;100.00;99389.41;2105670;28;20233;-75
2021/03/04 00:38:56;;;;;;;79.10;43.33;;;;;;;5.61;100.00;99383.84;2114629;27;20281;-75
2021/03/04 00:39:59;;;;;;;90.53;44.30;;;;;;;5.56;100.00;99389.91;2105578;28;20225;-75
2021/03/04 00:41:00;;;;;;;84.05;43.42;;;;;;;5.62;100.00;99385.44;2097411;28;20664;-75
2021/03/04 00:42:01;;;;;;;81.13;43.47;;;;;;;5.64;100.00;99392.06;2096783;28;20296;-75
2021/03/04 00:43:04;;;;;;;75.00;42.38;;;;;;;5.63;100.00;99385.19;2105798;28;20232;-75
2021/03/04 00:44:07;;;;;;;83.80;45.08;;;;;;;5.57;100.00;99385.41;2114703;27;20227;-75
2021/03/04 00:45:09;;;;;;;95.30;44.95;;;;;;;5.53;100.00;99387.75;2114057;28;20224;-76
2021/03/04 00:46:11;;;;;;;81.55;42.55;;;;;;;5.40;100.00;99367.03;2114442;28;20224;-76
2021/03/04 00:47:12;;;;;;;85.20;44.20;;;;;;;5.46;100.00;99378.44;2104943;28;20624;-75
2021/03/04 00:48:15;;;;;;;78.70;43.38;;;;;;;5.48;100.00;99379.81;2105523;28;20221;-75
2021/03/04 00:49:16;;;;;;;77.22;43.63;;;;;;;5.42;100.00;99372.88;2104961;28;20683;-75
2021/03/04 00:50:19;;;;;;;88.78;43.72;;;;;;;5.34;100.00;99376.78;2105644;28;20558;-75
2021/03/04 00:51:20;;;;;;;87.40;43.25;;;;;;;5.29;100.00;99370.66;2102853;28;20332;-75
2021/03/04 00:52:22;;;;;;;91.30;45.30;;;;;;;5.31;100.00;99377.31;2105218;28;20618;-75
2021/03/04 00:53:24;;;;;;;96.30;45.45;;;;;;;5.40;100.00;99372.34;2112093;27;20659;-76
2021/03/04 00:54:26;;;;;;;83.15;44.67;;;;;;;5.39;100.00;99371.53;2104960;28;20225;-76
2021/03/04 00:55:28;;;;;;;88.80;44.90;;;;;;;5.38;100.00;99366.47;2105429;28;20393;-75
2021/03/04 00:56:29;;;;;;;86.30;42.40;;;;;;;5.36;100.00;99365.94;2114490;27;20228;-75
2021/03/04 00:57:30;;;;;;;87.53;45.03;;;;;;;5.29;100.00;99357.41;2105198;28;20225;-75
2021/03/04 00:58:32;;;;;;;83.93;44.90;;;;;;;5.32;100.00;99368.31;2096990;28;20798;-75
2021/03/04 00:59:34;;;;;;;94.05;46.92;;;;;;;5.27;100.00;99359.53;2105320;28;20664;-75
2021/03/04 01:00:36;;;;;;;90.22;45.50;;;;;;;5.18;100.00;99347.81;2114282;27;20223;-75
2021/03/04 01:01:37;;;;;;;89.80;44.38;;;;;;;5.22;100.00;99349.72;2104764;28;20221;-76
2021/03/04 01:02:39;;;;;;;87.25;46.53;;;;;;;5.22;100.00;99348.94;2096644;28;20573;-75
2021/03/04 01:03:40;;;;;;;79.50;44.58;;;;;;;5.16;100.00;99336.72;2096556;28;20230;-75
2021/03/04 01:04:42;;;;;;;92.03;46.75;;;;;;;5.21;100.00;99349.94;2105553;28;20217;-75
2021/03/04 01:05:43;;;;;;;79.40;43.30;;;;;;;5.21;100.00;99347.31;2114369;27;20225;-76
2021/03/04 01:06:45;;;;;;;85.63;45.80;;;;;;;5.18;100.00;99351.25;2114188;27;20299;-75
2021/03/04 01:07:46;;;;;;;88.03;45.80;;;;;;;5.14;100.00;99350.19;2114338;27;20693;-75
2021/03/04 01:08:48;;;;;;;81.53;44.65;;;;;;;5.15;100.00;99345.69;2104719;28;20229;-75
2021/03/04 01:09:49;;;;;;;85.03;44.40;;;;;;;5.11;100.00;99340.09;2105662;28;20746;-75
2021/03/04 01:10:52;;;;;;;80.75;44.97;;;;;;;5.06;100.00;99338.22;2114361;27;20240;-75
2021/03/04 01:11:53;;;;;;;80.28;43.47;;;;;;;5.14;100.00;99344.09;2102642;28;20716;-75
2021/03/04 01:12:55;;;;;;;86.40;45.88;;;;;;;5.15;100.00;99337.75;2105323;28;20229;-75
2021/03/04 01:13:56;;;;;;;84.57;44.65;;;;;;;5.14;100.00;99341.47;2104836;28;20789;-75
2021/03/04 01:14:58;;;;;;;81.85;43.95;;;;;;;5.11;100.00;99335.59;2113835;27;20261;-75
2021/03/04 01:15:59;;;;;;;80.32;42.70;;;;;;;5.19;100.00;99330.91;2113414;28;20310;-75
2021/03/04 01:17:02;;;;;;;80.22;42.95;;;;;;;5.16;100.00;99328.78;2105394;28;20288;-75
2021/03/04 01:18:05;;;;;;;82.63;42.58;;;;;;;5.10;100.00;99331.38;2114401;27;20308;-75
2021/03/04 01:19:06;;;;;;;83.88;43.60;;;;;;;5.21;100.00;99334.91;2105144;28;20228;-75
2021/03/04 01:20:09;;;;;;;83.53;43.40;;;;;;;5.14;100.00;99328.22;2105107;28;20213;-76
2021/03/04 01:21:11;;;;;;;85.38;43.03;;;;;;;5.10;100.00;99323.44;2114177;27;20588;-75
2021/03/04 01:22:12;;;;;;;89.35;44.40;;;;;;;5.04;100.00;99319.19;2114349;27;20228;-76
2021/03/04 01:23:14;;;;;;;79.23;43.30;;;;;;;5.09;100.00;99319.19;2104692;28;20267;-75
2021/03/04 01:24:15;;;;;;;79.72;43.58;;;;;;;5.09;100.00;99316.56;2105547;28;20440;-75
2021/03/04 01:25:18;;;;;;;91.13;44.58;;;;;;;5.02;100.00;99315.97;2114246;27;20280;-75
2021/03/04 01:26:20;;;;;;;82.85;42.83;;;;;;;5.04;100.00;99318.38;2104403;28;20684;-75
2021/03/04 01:27:21;;;;;;;80.28;43.78;;;;;;;4.97;100.00;99313.31;2096693;28;20218;-75
2021/03/04 01:28:23;;;;;;;75.72;41.85;;;;;;;4.95;100.00;99318.06;2096272;28;20744;-75
2021/03/04 01:29:24;;;;;;;85.60;42.75;;;;;;;4.94;100.00;99313.00;2105211;28;20221;-76
2021/03/04 01:30:28;;;;;;;76.40;43.72;;;;;;;4.95;100.00;99310.13;2104999;28;20603;-76
2021/03/04 01:31:29;;;;;;;78.45;42.90;;;;;;;4.80;100.00;99287.00;2097330;28;20632;-75
2021/03/04 01:32:30;;;;;;;81.95;42.20;;;;;;;4.99;100.00;99311.19;2105322;28;20228;-75
2021/03/04 01:33:32;;;;;;;74.53;41.65;;;;;;;4.90;100.00;99290.75;2104596;28;20688;-75
2021/03/04 01:34:34;;;;;;;79.05;42.47;;;;;;;4.86;100.00;99287.81;2097182;28;20295;-75
2021/03/04 01:35:36;;;;;;;85.60;44.63;;;;;;;4.88;100.00;99303.44;2113524;27;20281;-75
2021/03/04 01:36:37;;;;;;;84.05;40.60;;;;;;;4.87;100.00;99291.28;2122052;27;20223;-75
2021/03/04 01:37:38;;;;;;;80.10;43.13;;;;;;;4.91;100.00;99309.00;2111821;28;20231;-76
2021/03/04 01:38:40;;;;;;;83.68;42.75;;;;;;;4.93;100.00;99296.34;2114121;28;20217;-75
2021/03/04 01:39:41;;;;;;;76.35;42.03;;;;;;;4.90;100.00;99296.06;2114193;28;20228;-75
2021/03/04 01:40:44;;;;;;;79.18;43.30;;;;;;;4.92;100.00;99304.53;2114108;28;20323;-75
2021/03/04 01:41:46;;;;;;;88.22;42.15;;;;;;;4.88;100.00;99306.88;2113830;28;20220;-75
2021/03/04 01:42:48;;;;;;;84.70;43.88;;;;;;;4.94;100.00;99303.22;2114184;28;20738;-75
2021/03/04 01:43:50;;;;;;;78.00;42.63;;;;;;;4.89;100.00;99300.53;2114096;28;20248;-75
2021/03/04 01:44:51;;;;;;;79.20;44.58;;;;;;;4.79;100.00;99293.34;2114176;28;20219;-75
2021/03/04 01:45:53;;;;;;;78.90;42.47;;;;;;;4.79;100.00;99290.69;2104593;28;20233;-75
2021/03/04 01:46:54;;;;;;;83.35;42.30;;;;;;;4.73;100.00;99289.03;2096202;28;20233;-75
2021/03/04 01:47:56;;;;;;;74.85;42.78;;;;;;;4.79;100.00;99295.19;2096757;28;20279;-75
2021/03/04 01:48:58;;;;;;;76.10;43.13;;;;;;;4.80;100.00;99296.78;2105190;28;20578;-75
2021/03/04 01:49:59;;;;;;;77.30;41.08;;;;;;;4.74;100.00;99290.63;2114152;28;20217;-75
2021/03/04 01:51:02;;;;;;;78.80;40.80;;;;;;;4.77;100.00;99291.97;2114031;28;20220;-75
2021/03/04 01:52:03;;;;;;;80.53;41.30;;;;;;;4.78;100.00;99288.31;2104604;28;20220;-75
2021/03/04 01:53:05;;;;;;;73.80;41.42;;;;;;;4.69;100.00;99279.22;2104949;28;20232;-75
2021/03/04 01:54:06;;;;;;;82.55;41.97;;;;;;;4.74;100.00;99285.34;2113153;27;20232;-75
2021/03/04 01:55:09;;;;;;;77.32;40.25;;;;;;;4.79;100.00;99279.31;2112369;28;20209;-75
2021/03/04 01:56:11;;;;;;;81.20;41.03;;;;;;;4.77;100.00;99289.31;2096659;28;20222;-75
2021/03/04 01:57:14;;;;;;;80.05;41.10;;;;;;;4.79;100.00;99287.25;2096187;28;20251;-75
2021/03/04 01:58:15;;;;;;;72.18;39.92;;;;;;;4.79;100.00;99284.59;2105425;28;20228;-75
2021/03/04 01:59:17;;;;;;;70.68;38.63;;;;;;;4.69;100.00;99269.47;2113985;28;20299;-75
2021/03/04 02:00:20;;;;;;;76.07;40.78;;;;;;;4.81;100.00;99282.50;2114006;28;20224;-75
2021/03/04 02:01:22;;;;;;;72.43;40.83;;;;;;;4.77;100.00;99281.41;2114010;28;20225;-75
2021/03/04 02:02:23;;;;;;;73.63;41.00;;;;;;;4.72;100.00;99276.09;2113528;28;20228;-75
2021/03/04 02:03:25;;;;;;;79.88;39.28;;;;;;;4.72;100.00;99274.25;2104506;28;20218;-76
2021/03/04 02:04:27;;;;;;;80.15;40.80;;;;;;;4.78;100.00;99283.81;2105151;28;20248;-75
2021/03/04 02:05:29;;;;;;;69.47;38.03;;;;;;;4.79;100.00;99281.97;2114040;28;20224;-75
2021/03/04 02:06:34;;;;;;;73.60;38.80;;;;;;;4.76;100.00;99279.81;2104664;28;20225;-75
2021/03/04 02:07:41;;;;;;;65.05;37.97;;;;;;;4.77;100.00;99281.41;2105555;28;20217;-75
2021/03/04 02:08:46;;;;;;;72.65;39.42;;;;;;;4.78;100.00;99286.47;2104141;28;21441;-75
2021/03/04 02:09:53;;;;;;;69.78;39.15;;;;;;;4.76;100.00;99275.31;2096895;28;20724;-75
2021/03/04 02:11:01;;;;;;;71.25;39.55;;;;;;;4.74;100.00;99276.63;2103947;28;20753;-75
2021/03/04 02:12:07;;;;;;;73.50;40.55;;;;;;;4.68;100.00;99283.69;2097445;28;20222;-75
2021/03/04 02:13:19;;;;;;;73.45;40.10;;;;;;;4.61;100.00;99277.06;2105135;28;20304;-75
2021/03/04 02:14:25;;;;;;;72.50;39.40;;;;;;;4.61;100.00;99266.50;2104674;28;20690;-75
2021/03/04 02:15:30;;;;;;;69.82;38.33;;;;;;;4.61;100.00;99271.78;2113575;27;20307;-75
2021/03/04 02:16:36;;;;;;;71.53;39.85;;;;;;;4.61;100.00;99279.69;2120387;27;20692;-75
2021/03/04 02:17:39;;;;;;;71.30;37.05;;;;;;;4.65;100.00;99272.84;2104343;28;20324;-75
2021/03/04 02:18:44;;;;;;;71.90;39.75;;;;;;;4.50;100.00;99263.72;2096797;28;20295;-75
2021/03/04 02:19:50;;;;;;;70.93;39.45;;;;;;;4.53;100.00;99283.59;2104910;28;20217;-75
2021/03/04 02:21:12;;;;;;;71.45;38.58;;;;;;;4.63;100.00;99275.75;2105471;27;20291;-74
2021/03/04 02:22:24;;;;;;;70.95;38.25;;;;;;;4.59;100.00;99276.50;2106258;27;20274;-75
2021/03/04 02:23:45;;;;;;;79.13;40.40;;;;;;;4.49;100.00;99269.28;2111720;27;20265;-75
2021/03/04 02:24:55;;;;;;;67.97;38.15;;;;;;;4.48;100.00;99263.19;2103594;28;20245;-75
2021/03/04 02:26:06;;;;;;;71.32;39.85;;;;;;;4.48;100.00;99260.56;2097572;28;20325;-75
2021/03/04 02:27:10;;;;;;;70.22;39.17;;;;;;;4.41;100.00;99273.16;2102279;28;20232;-76
2021/03/04 02:28:12;;;;;;;78.28;39.60;;;;;;;4.36;100.00;99257.28;2105298;28;20254;-75
2021/03/04 02:29:19;;;;;;;73.35;39.78;;;;;;;4.48;100.00;99260.56;2113851;27;20217;-75
2021/03/04 02:30:25;;;;;;;69.00;38.22;;;;;;;4.45;100.00;99253.13;2113823;27;20228;-75
2021/03/04 02:31:30;;;;;;;73.32;39.88;;;;;;;4.46;100.00;99259.22;2102804;28;20270;-75
2021/03/04 02:32:32;;;;;;;76.78;38.30;;;;;;;4.45;100.00;99253.13;2104608;28;20224;-75
2021/03/04 02:33:35;;;;;;;76.07;40.30;;;;;;;4.44;100.00;99256.84;2104665;28;20222;-75
2021/03/04 02:34:48;;;;;;;73.68;38.70;;;;;;;4.40;100.00;99249.66;2104932;28;20213;-75
2021/03/04 02:35:51;;;;;;;72.82;39.08;;;;;;;4.36;100.00;99252.00;2104130;28;20230;-75
2021/03/04 02:36:54;;;;;;;67.35;37.95;;;;;;;4.32;100.00;99248.25;2102069;28;20221;-75
2021/03/04 02:37:57;;;;;;;76.55;40.95;;;;;;;4.29;100.00;99248.75;2104764;28;20645;-75
2021/03/04 02:38:59;;;;;;;71.43;40.10;;;;;;;4.25;100.00;99248.44;2113699;27;20620;-75
2021/03/04 02:40:02;;;;;;;72.35;40.42;;;;;;;4.21;100.00;99233.38;2113497;27;20616;-75
2021/03/04 02:41:04;;;;;;;68.55;38.13;;;;;;;4.20;100.00;99239.69;2113700;27;20217;-75
2021/03/04 02:42:06;;;;;;;73.38;39.28;;;;;;;4.04;100.00;99225.53;2113662;27;20281;-74
2021/03/04 02:43:10;;;;;;;72.65;41.08;;;;;;;4.15;100.00;99242.28;2111218;27;20304;-75
2021/03/04 02:44:13;;;;;;;75.47;40.15;;;;;;;4.10;100.00;99236.97;2113549;27;20224;-74
2021/03/04 02:45:15;;;;;;;69.93;38.67;;;;;;;4.07;100.00;99229.53;2104525;28;20221;-74
2021/03/04 02:46:18;;;;;;;71.13;36.83;;;;;;;4.04;100.00;99230.81;2104717;28;20218;-74
2021/03/04 02:47:20;;;;;;;67.43;38.85;;;;;;;4.01;100.00;99225.25;2113354;27;20231;-74
2021/03/04 02:48:22;;;;;;;70.53;38.85;;;;;;;4.05;100.00;99228.97;2104685;28;20221;-74
2021/03/04 02:49:24;;;;;;;74.40;39.42;;;;;;;4.00;100.00;99223.63;2104553;27;20725;-75
2021/03/04 02:50:26;;;;;;;69.35;37.88;;;;;;;3.97;100.00;99217.81;2096385;28;20217;-74
2021/03/04 02:51:28;;;;;;;73.78;40.70;;;;;;;4.08;100.00;99212.63;2096548;28;20233;-74
2021/03/04 02:52:30;;;;;;;75.70;38.72;;;;;;;4.11;100.00;99225.34;2104465;28;20221;-74
2021/03/04 02:53:31;;;;;;;74.90;40.90;;;;;;;4.15;100.00;99218.50;2096531;28;20638;-74
2021/03/04 02:54:34;;;;;;;73.20;40.15;;;;;;;4.18;100.00;99223.31;2104626;28;20225;-74
2021/03/04 02:55:36;;;;;;;67.25;39.65;;;;;;;4.20;100.00;99213.28;2103947;28;20221;-74
2021/03/04 02:56:37;;;;;;;76.72;40.28;;;;;;;4.18;100.00;99216.19;2095866;28;20226;-76
2021/03/04 02:57:41;;;;;;;73.40;39.67;;;;;;;4.13;100.00;99207.41;2095825;28;20792;-75
2021/03/04 02:58:44;;;;;;;71.38;40.80;;;;;;;4.10;100.00;99213.19;2096180;28;20226;-74
2021/03/04 02:59:46;;;;;;;70.45;38.83;;;;;;;3.89;100.00;99183.94;2104657;28;20266;-74
2021/03/04 03:00:48;;;;;;;71.63;40.78;;;;;;;4.03;100.00;99208.09;2113486;27;20338;-74
2021/03/04 03:01:50;;;;;;;69.85;38.22;;;;;;;3.95;100.00;99204.06;2104034;28;20217;-74
2021/03/04 03:02:53;;;;;;;70.85;40.38;;;;;;;3.94;100.00;99210.41;2104754;28;20229;-74
2021/03/04 03:03:55;;;;;;;71.10;39.30;;;;;;;3.90;100.00;99206.66;2101983;28;20229;-75
2021/03/04 03:04:57;;;;;;;71.22;39.75;;;;;;;3.87;100.00;99203.72;2095876;28;20233;-75
2021/03/04 03:06:02;;;;;;;66.18;39.28;;;;;;;3.85;100.00;99200.53;2104800;28;20690;-74
2021/03/04 03:07:04;;;;;;;71.07;39.97;;;;;;;3.88;100.00;99200.81;2113480;27;20300;-74
2021/03/04 03:08:06;;;;;;;72.05;40.15;;;;;;;3.77;100.00;99196.50;2104460;28;20217;-74
2021/03/04 03:09:08;;;;;;;70.63;40.38;;;;;;;3.83;100.00;99187.59;2104276;27;20233;-75
2021/03/04 03:10:11;;;;;;;69.63;39.40;;;;;;;3.86;100.00;99205.56;2113343;27;20582;-75
2021/03/04 03:11:14;;;;;;;72.25;39.75;;;;;;;3.80;100.00;99198.63;2104153;28;20236;-75
2021/03/04 03:12:17;;;;;;;69.57;39.88;;;;;;;3.76;100.00;99197.53;2096212;28;20228;-75
2021/03/04 03:13:20;;;;;;;70.90;38.80;;;;;;;3.73;100.00;99211.22;2096425;28;20645;-74
2021/03/04 03:14:22;;;;;;;73.18;39.17;;;;;;;3.71;100.00;99210.66;2104650;28;20217;-74
2021/03/04 03:15:25;;;;;;;68.50;38.80;;;;;;;3.69;100.00;99204.84;2111100;28;20574;-75
2021/03/04 03:16:28;;;;;;;76.18;41.00;;;;;;;3.73;100.00;99205.13;2103740;28;20332;-75
2021/03/04 03:17:29;;;;;;;70.03;39.63;;;;;;;3.69;100.00;99199.56;2104617;28;20312;-75
2021/03/04 03:18:31;;;;;;;75.57;42.42;;;;;;;3.60;100.00;99174.69;2103955;28;20228;-75
2021/03/04 03:19:32;;;;;;;75.25;40.65;;;;;;;3.75;100.00;99203.88;2095820;28;20711;-75
2021/03/04 03:20:34;;;;;;;71.22;39.80;;;;;;;3.75;100.00;99206.50;2103597;28;20232;-75
2021/03/04 03:21:36;;;;;;;71.18;39.72;;;;;;;3.72;100.00;99193.00;2087671;28;20708;-74
2021/03/04 03:22:38;;;;;;;76.35;41.10;;;;;;;3.68;100.00;99200.63;2102049;27;20367;-75
2021/03/04 03:23:39;;;;;;;71.80;41.05;;;;;;;3.73;100.00;99203.28;2104284;28;20221;-75
2021/03/04 03:24:41;;;;;;;73.88;40.10;;;;;;;3.67;100.00;99184.00;2112404;28;20228;-75
2021/03/04 03:25:42;;;;;;;77.88;41.40;;;;;;;3.72;100.00;99193.00;2112390;28;20699;-75
2021/03/04 03:26:44;;;;;;;71.07;40.38;;;;;;;3.72;100.00;99195.63;2104609;28;20232;-75
2021/03/04 03:27:46;;;;;;;72.38;40.03;;;;;;;3.69;100.00;99191.66;2113418;27;20756;-75
2021/03/04 03:28:48;;;;;;;74.53;39.92;;;;;;;3.67;100.00;99188.47;2113455;27;20730;-75
2021/03/04 03:29:50;;;;;;;79.72;41.08;;;;;;;3.77;100.00;99193.84;2113451;27;20243;-75
2021/03/04 03:30:52;;;;;;;72.93;40.30;;;;;;;3.80;100.00;99190.72;2111410;27;20675;-75
2021/03/04 03:31:57;;;;;;;69.00;39.97;;;;;;;3.71;100.00;99179.00;2111026;28;20263;-75
2021/03/04 03:33:01;;;;;;;71.15;40.17;;;;;;;3.88;100.00;99190.28;2103839;28;20213;-75
2021/03/04 03:34:04;;;;;;;70.03;38.13;;;;;;;3.89;100.00;99193.72;2094128;28;20255;-74
2021/03/04 03:35:06;;;;;;;69.85;39.80;;;;;;;3.90;100.00;99195.28;2095907;28;20619;-75
2021/03/04 03:36:09;;;;;;;71.40;41.30;;;;;;;3.88;100.00;99190.28;2095496;28;20245;-74
2021/03/04 03:37:10;;;;;;;68.55;39.92;;;;;;;3.90;100.00;99192.66;2104158;28;20691;-74
2021/03/04 03:38:12;;;;;;;71.18;40.65;;;;;;;3.92;100.00;99194.03;2102355;28;20688;-75
2021/03/04 03:39:15;;;;;;;68.88;38.90;;;;;;;3.96;100.00;99194.31;2104472;28;20676;-74
2021/03/04 03:40:17;;;;;;;75.43;40.42;;;;;;;3.90;100.00;99182.91;2113266;27;20216;-75
2021/03/04 03:41:19;;;;;;;75.70;40.45;;;;;;;3.94;100.00;99191.94;2113197;27;20249;-75
2021/03/04 03:42:20;;;;;;;72.00;38.25;;;;;;;3.90;100.00;99182.91;2113245;27;20224;-76
2021/03/04 03:43:24;;;;;;;62.28;38.92;;;;;;;3.93;100.00;99185.06;2113363;27;20223;-76
2021/03/04 03:44:26;;;;;;;70.57;39.80;;;;;;;3.95;100.00;99190.88;2103726;28;20237;-76
2021/03/04 03:45:31;;;;;;;67.18;38.20;;;;;;;3.96;100.00;99184.53;2104554;28;20719;-76
2021/03/04 03:46:33;;;;;;;71.47;38.10;;;;;;;3.81;100.00;99179.09;2113066;28;20292;-76
2021/03/04 03:47:35;;;;;;;78.93;39.88;;;;;;;3.84;100.00;99183.91;2104088;28;20220;-76
2021/03/04 03:48:36;;;;;;;70.65;39.55;;;;;;;3.83;100.00;99176.25;2103866;28;20217;-76
2021/03/04 03:49:39;;;;;;;70.22;40.28;;;;;;;3.84;100.00;99186.56;2103900;28;20695;-76
2021/03/04 03:50:41;;;;;;;70.97;39.70;;;;;;;3.81;100.00;99173.84;2113122;28;20224;-76
2021/03/04 03:51:44;;;;;;;73.80;39.67;;;;;;;3.85;100.00;99188.13;2113182;28;20230;-75
2021/03/04 03:52:45;;;;;;;70.72;39.28;;;;;;;3.80;100.00;99189.91;2113169;28;20576;-76
2021/03/04 03:53:47;;;;;;;71.95;40.42;;;;;;;3.74;100.00;99177.75;2103774;28;20272;-76
2021/03/04 03:54:48;;;;;;;71.05;39.88;;;;;;;3.69;100.00;99175.81;2104423;28;20217;-76
2021/03/04 03:55:51;;;;;;;67.47;38.72;;;;;;;3.73;100.00;99181.41;2103635;28;20364;-76
2021/03/04 03:56:52;;;;;;;63.33;38.03;;;;;;;3.62;100.00;99164.66;2104167;28;20217;-77
2021/03/04 03:57:55;;;;;;;73.63;39.75;;;;;;;3.66;100.00;99176.34;2113207;28;20232;-76
2021/03/04 03:58:58;;;;;;;72.63;39.97;;;;;;;3.66;100.00;99169.22;2104786;28;20225;-76
2021/03/04 04:00:01;;;;;;;65.70;37.85;;;;;;;3.66;100.00;99168.41;2106117;28;20228;-76
2021/03/04 04:01:04;;;;;;;69.85;39.08;;;;;;;3.65;100.00;99166.81;2105540;28;20229;-75
2021/03/04 04:02:05;;;;;;;66.70;39.80;;;;;;;3.64;100.00;99167.84;2097663;28;20218;-75
2021/03/04 04:03:07;;;;;;;73.57;39.78;;;;;;;3.56;100.00;99148.00;2097551;28;20355;-75
2021/03/04 04:04:08;;;;;;;66.88;37.58;;;;;;;3.70;100.00;99174.78;2096877;28;20226;-75
2021/03/04 04:05:11;;;;;;;68.65;40.65;;;;;;;3.64;100.00;99166.00;2105928;28;20229;-76
2021/03/04 04:06:12;;;;;;;72.10;41.20;;;;;;;3.63;100.00;99167.06;2114588;28;20633;-75
2021/03/04 04:07:14;;;;;;;70.28;40.17;;;;;;;3.64;100.00;99162.56;2114799;28;20579;-75
2021/03/04 04:08:18;;;;;;;72.03;39.42;;;;;;;3.58;100.00;99164.38;2114724;28;20651;-75
2021/03/04 04:09:19;;;;;;;73.43;40.55;;;;;;;3.56;100.00;99161.19;2105788;28;20296;-76
2021/03/04 04:10:22;;;;;;;72.10;41.75;;;;;;;3.56;100.00;99155.91;2105972;28;20300;-75
2021/03/04 04:11:24;;;;;;;72.72;40.88;;;;;;;3.48;100.00;99152.91;2105407;28;20247;-75
2021/03/04 04:12:26;;;;;;;75.80;40.42;;;;;;;3.55;100.00;99159.56;2097344;28;20232;-75
2021/03/04 04:13:28;;;;;;;75.65;41.22;;;;;;;3.55;100.00;99154.28;2105914;28;20675;-75
2021/03/04 04:14:29;;;;;;;65.88;38.92;;;;;;;3.63;100.00;99161.78;2114736;28;20774;-75
2021/03/04 04:15:31;;;;;;;72.63;40.63;;;;;;;3.66;100.00;99152.59;2114717;28;20312;-75
2021/03/04 04:16:35;;;;;;;67.80;39.33;;;;;;;3.68;100.00;99153.94;2105095;28;20226;-75
2021/03/04 04:17:36;;;;;;;77.03;41.92;;;;;;;3.61;100.00;99148.03;2104984;28;20217;-76
2021/03/04 04:18:38;;;;;;;71.63;39.67;;;;;;;3.60;100.00;99148.28;2096372;28;20222;-76
2021/03/04 04:19:40;;;;;;;75.10;41.53;;;;;;;3.52;100.00;99140.81;2105906;28;20221;-75
2021/03/04 04:20:42;;;;;;;71.15;40.88;;;;;;;3.53;100.00;99150.31;2105609;28;20637;-76
2021/03/04 04:21:43;;;;;;;79.78;40.15;;;;;;;3.54;100.00;99147.44;2105821;28;20768;-75
2021/03/04 04:22:46;;;;;;;72.10;39.67;;;;;;;3.52;100.00;99140.81;2114496;28;20221;-75
2021/03/04 04:23:47;;;;;;;67.03;37.95;;;;;;;3.48;100.00;99137.91;2114682;28;20220;-75
2021/03/04 04:24:49;;;;;;;66.15;38.92;;;;;;;3.44;100.00;99135.97;2114671;28;20224;-75
2021/03/04 04:25:52;;;;;;;70.10;38.92;;;;;;;3.40;100.00;99135.69;2105656;28;20225;-75
2021/03/04 04:26:54;;;;;;;73.15;40.00;;;;;;;3.47;100.00;99140.75;2097096;28;20313;-76
2021/03/04 04:27:56;;;;;;;68.95;39.58;;;;;;;3.40;100.00;99141.75;2090519;28;20234;-75
2021/03/04 04:28:58;;;;;;;73.60;40.42;;;;;;;3.57;100.00;99146.97;2104635;28;20233;-75
2021/03/04 04:29:59;;;;;;;71.90;40.05;;;;;;;3.54;100.00;99142.16;2114762;27;20227;-75
2021/03/04 04:31:01;;;;;;;70.95;39.60;;;;;;;3.50;100.00;99138.44;2114777;27;20224;-75
2021/03/04 04:32:04;;;;;;;74.82;41.80;;;;;;;3.47;100.00;99146.03;2114692;27;20240;-75
2021/03/04 04:33:06;;;;;;;76.35;41.28;;;;;;;3.46;100.00;99139.97;2114654;27;20277;-75
2021/03/04 04:34:07;;;;;;;76.32;41.15;;;;;;;3.36;100.00;99137.22;2112211;27;20228;-76
2021/03/04 04:35:10;;;;;;;70.32;40.53;;;;;;;3.40;100.00;99135.69;2114565;27;20582;-75
2021/03/04 04:36:12;;;;;;;73.93;39.53;;;;;;;3.34;100.00;99124.28;2105021;28;20234;-75
2021/03/04 04:37:13;;;;;;;70.82;38.83;;;;;;;3.36;100.00;99130.09;2097430;28;20689;-75
2021/03/04 04:38:15;;;;;;;71.75;40.55;;;;;;;3.24;100.00;99118.91;2105544;28;20333;-75
2021/03/04 04:39:16;;;;;;;71.05;40.38;;;;;;;3.28;100.00;99132.38;2105066;28;20241;-75
2021/03/04 04:40:18;;;;;;;72.00;39.00;;;;;;;3.24;100.00;99126.81;2105623;28;20633;-75
2021/03/04 04:41:19;;;;;;;70.35;39.60;;;;;;;3.18;100.00;99119.06;2114611;27;20220;-75
2021/03/04 04:42:22;;;;;;;71.78;40.17;;;;;;;3.17;100.00;99126.19;2105512;28;20301;-75
2021/03/04 04:43:23;;;;;;;72.78;40.83;;;;;;;3.15;100.00;99120.38;2103181;28;20704;-76
2021/03/04 04:44:25;;;;;;;71.30;39.67;;;;;;;3.12;100.00;99112.94;2104833;28;20221;-76
2021/03/04 04:45:26;;;;;;;74.25;41.50;;;;;;;3.04;100.00;99111.56;2097195;28;20233;-76
2021/03/04 04:46:28;;;;;;;67.32;40.47;;;;;;;3.04;100.00;99111.56;2105615;28;20316;-76
2021/03/04 04:47:30;;;;;;;70.80;41.42;;;;;;;3.02;100.00;99107.53;2114646;27;20228;-75